Aérodrome :
LOGIN :

S'inscrire | Disclaimer

   EN    FR    IT 

 










Légende :    VFR   VFR Marginal   IFR   IFR Intensif   IFR Très Intensif
Visi : 
Plafond : 
>= 8 km
>= 3000ft
5 à 8 km
1000 à 3000 ft
1500m à 5 km
500 à 1000 ft
800 à 1500m
200 à 500 ft
< 800m
< 200 ft
Symboles :   Orages  Brouillard  Fortes neiges  Fortes précipitations  Vent > 20 kt
SIGMETs :   Divers  Orages  Givrage  Turbulence  Onde Orograph.  Cendres Volcan.







- Altitude de l'aérodrome : 1411 ft
- Code IATA : GVA


LSGG - Genève Cointrin

DERNIER METAR :
  • 231520Z 23005KT 210V270 9999 FEW035 BKN280 11/04 Q1027 NOSIG

METARs EXPIRÉS :
  • 231450Z 24005KT 210V270 9999 FEW035 BKN280 12/05 Q1027 NOSIG
  • 231420Z 19004KT 130V300 9999 FEW035 BKN280 12/04 Q1027 NOSIG
  • 231350Z 23004KT 160V290 9999 FEW035 12/04 Q1027 NOSIG
  • 231320Z VRB03KT 9999 FEW030 12/04 Q1027 NOSIG
  • 231250Z VRB03KT 9999 FEW035 11/05 Q1027 NOSIG

TAF TAF LSGG
Valide du 23 à 15h jusqu'au 24 à 21h UTC


231425Z 2315/2421 VRB03KT 9999 FEW035 TX12/2315Z TN01/2406Z TX11/2415Z
PROB30 2403/2408 0300 FZFG VV002
BECMG 2408/2410 CAVOK
ATIS : +41 22 417 40 81
Pas de NOTAMs connus pour ce terrain.



MET'MAP, la Météo Aéronautique d'un coup d'oeil ! - Copyright ORBIFLY Décembre 2007 - Disclaimer

ORBIFLY MET'MAP TEAM :

Programmation & Développement : Alexandra Zaïnal
Conception & Développement : Baudouin d'Aumeries
Co-Programmation & Développement : Marc-Olivier Méhu
Soutien technique & logistique : Manuel Goepfert

Contact : metmap@orbifly.com




SOURCES & CREDITS :

   NOAA